sensor_id;sensor_type;location;lat;lon;timestamp;temperature;humidity
26378;DHT22;14078;50.974;6.786;2022-12-10T05:58:35;1.10;99.90
26378;DHT22;14078;50.974;6.786;2022-12-10T06:01:05;1.10;99.90
26378;DHT22;14078;50.974;6.786;2022-12-10T06:03:32;0.90;99.90
26378;DHT22;14078;50.974;6.786;2022-12-10T06:05:59;0.90;99.90
26378;DHT22;14078;50.974;6.786;2022-12-10T06:08:25;0.80;99.90
26378;DHT22;14078;50.974;6.786;2022-12-10T06:10:52;0.70;99.90
26378;DHT22;14078;50.974;6.786;2022-12-10T06:13:19;0.70;99.90
26378;DHT22;14078;50.974;6.786;2022-12-10T06:15:47;0.80;99.90
26378;DHT22;14078;50.974;6.786;2022-12-10T06:18:13;0.90;99.90
26378;DHT22;14078;50.974;6.786;2022-12-10T06:20:40;1.10;99.90
26378;DHT22;14078;50.974;6.786;2022-12-10T06:23:06;1.10;99.90
26378;DHT22;14078;50.974;6.786;2022-12-10T06:25:33;1.10;99.90
26378;DHT22;14078;50.974;6.786;2022-12-10T06:28:00;1.10;99.90
26378;DHT22;14078;50.974;6.786;2022-12-10T06:30:26;1.10;99.90
26378;DHT22;14078;50.974;6.786;2022-12-10T06:32:54;1.10;99.90
26378;DHT22;14078;50.974;6.786;2022-12-10T06:35:20;1.00;99.90
26378;DHT22;14078;50.974;6.786;2022-12-10T06:37:48;1.10;99.90
26378;DHT22;14078;50.974;6.786;2022-12-10T06:40:14;1.10;99.90
26378;DHT22;14078;50.974;6.786;2022-12-10T06:42:41;1.10;99.90
26378;DHT22;14078;50.974;6.786;2022-12-10T06:45:08;1.10;99.90
26378;DHT22;14078;50.974;6.786;2022-12-10T06:47:34;1.10;99.90
26378;DHT22;14078;50.974;6.786;2022-12-10T06:50:02;1.10;99.90
26378;DHT22;14078;50.974;6.786;2022-12-10T06:52:29;0.90;99.90
26378;DHT22;14078;50.974;6.786;2022-12-10T06:54:56;0.80;99.90
26378;DHT22;14078;50.974;6.786;2022-12-10T06:57:22;0.70;99.90
26378;DHT22;14078;50.974;6.786;2022-12-10T06:59:49;0.70;99.90
26378;DHT22;14078;50.974;6.786;2022-12-10T07:02:16;0.50;99.90
26378;DHT22;14078;50.974;6.786;2022-12-10T07:04:42;0.50;99.90
26378;DHT22;14078;50.974;6.786;2022-12-10T07:07:10;0.40;99.90
26378;DHT22;14078;50.974;6.786;2022-12-10T07:09:36;0.30;99.90
26378;DHT22;14078;50.974;6.786;2022-12-10T07:12:03;0.20;99.90
26378;DHT22;14078;50.974;6.786;2022-12-10T07:14:30;0.20;99.90
26378;DHT22;14078;50.974;6.786;2022-12-10T07:16:57;0.10;99.90
26378;DHT22;14078;50.974;6.786;2022-12-10T07:19:24;0.10;99.90
26378;DHT22;14078;50.974;6.786;2022-12-10T07:21:52;0.10;99.90
26378;DHT22;14078;50.974;6.786;2022-12-10T07:30:11;-0.20;99.90
26378;DHT22;14078;50.974;6.786;2022-12-10T07:32:38;-0.20;99.90
26378;DHT22;14078;50.974;6.786;2022-12-10T07:35:05;-0.20;99.90
26378;DHT22;14078;50.974;6.786;2022-12-10T07:37:31;-0.20;99.90
26378;DHT22;14078;50.974;6.786;2022-12-10T07:39:59;-0.20;99.90
26378;DHT22;14078;50.974;6.786;2022-12-10T07:42:25;-0.20;99.90
26378;DHT22;14078;50.974;6.786;2022-12-10T07:44:52;-0.20;99.90
26378;DHT22;14078;50.974;6.786;2022-12-10T07:47:20;-0.20;99.90
26378;DHT22;14078;50.974;6.786;2022-12-10T07:49:46;-0.30;99.90
26378;DHT22;14078;50.974;6.786;2022-12-10T07:52:13;-0.30;99.90
26378;DHT22;14078;50.974;6.786;2022-12-10T07:54:39;-0.30;99.90
26378;DHT22;14078;50.974;6.786;2022-12-10T07:57:06;-0.20;99.90
26378;DHT22;14078;50.974;6.786;2022-12-10T07:59:32;-0.10;99.90
26378;DHT22;14078;50.974;6.786;2022-12-10T08:01:59;-0.10;99.90
26378;DHT22;14078;50.974;6.786;2022-12-10T08:04:28;-0.10;99.90
26378;DHT22;14078;50.974;6.786;2022-12-10T08:06:55;-0.20;99.90
26378;DHT22;14078;50.974;6.786;2022-12-10T08:09:22;-0.10;99.90
26378;DHT22;14078;50.974;6.786;2022-12-10T08:11:48;-0.10;99.90
26378;DHT22;14078;50.974;6.786;2022-12-10T08:14:15;-0.10;99.90
26378;DHT22;14078;50.974;6.786;2022-12-10T08:16:41;0.00;99.90
26378;DHT22;14078;50.974;6.786;2022-12-10T08:19:08;0.00;99.90
26378;DHT22;14078;50.974;6.786;2022-12-10T08:21:36;0.10;99.90
26378;DHT22;14078;50.974;6.786;2022-12-10T08:24:03;0.10;99.90
26378;DHT22;14078;50.974;6.786;2022-12-10T08:26:30;0.20;99.90
26378;DHT22;14078;50.974;6.786;2022-12-10T08:28:57;0.20;99.90
26378;DHT22;14078;50.974;6.786;2022-12-10T08:31:25;0.20;99.90
26378;DHT22;14078;50.974;6.786;2022-12-10T08:33:52;0.30;99.90
26378;DHT22;14078;50.974;6.786;2022-12-10T08:36:19;0.30;99.90
26378;DHT22;14078;50.974;6.786;2022-12-10T08:38:47;0.30;99.90
26378;DHT22;14078;50.974;6.786;2022-12-10T08:41:14;0.20;99.90
26378;DHT22;14078;50.974;6.786;2022-12-10T08:43:41;0.30;99.90
26378;DHT22;14078;50.974;6.786;2022-12-10T08:46:07;0.20;99.90
26378;DHT22;14078;50.974;6.786;2022-12-10T08:48:35;0.30;99.90
26378;DHT22;14078;50.974;6.786;2022-12-10T08:51:02;0.40;99.90
26378;DHT22;14078;50.974;6.786;2022-12-10T08:53:28;0.40;99.90
26378;DHT22;14078;50.974;6.786;2022-12-10T08:55:56;0.50;99.90
26378;DHT22;14078;50.974;6.786;2022-12-10T08:58:23;0.50;99.90
26378;DHT22;14078;50.974;6.786;2022-12-10T09:00:50;0.60;99.90
26378;DHT22;14078;50.974;6.786;2022-12-10T09:03:17;0.70;99.90
26378;DHT22;14078;50.974;6.786;2022-12-10T09:05:43;0.80;99.90
26378;DHT22;14078;50.974;6.786;2022-12-10T09:08:10;0.60;99.90
26378;DHT22;14078;50.974;6.786;2022-12-10T09:10:36;0.60;99.90
26378;DHT22;14078;50.974;6.786;2022-12-10T09:13:05;0.50;99.90
26378;DHT22;14078;50.974;6.786;2022-12-10T09:15:31;0.70;99.90
26378;DHT22;14078;50.974;6.786;2022-12-10T09:17:58;0.70;99.90
26378;DHT22;14078;50.974;6.786;2022-12-10T09:20:24;0.70;99.90
26378;DHT22;14078;50.974;6.786;2022-12-10T09:22:51;0.60;99.90
26378;DHT22;14078;50.974;6.786;2022-12-10T09:25:18;0.60;99.90
26378;DHT22;14078;50.974;6.786;2022-12-10T09:27:46;0.60;99.90
26378;DHT22;14078;50.974;6.786;2022-12-10T09:30:14;0.80;99.90
26378;DHT22;14078;50.974;6.786;2022-12-10T09:32:41;0.80;99.90
26378;DHT22;14078;50.974;6.786;2022-12-10T09:35:08;0.80;99.90
26378;DHT22;14078;50.974;6.786;2022-12-10T09:37:34;0.80;99.90
26378;DHT22;14078;50.974;6.786;2022-12-10T09:40:01;0.80;99.90
26378;DHT22;14078;50.974;6.786;2022-12-10T09:42:31;0.80;99.90
26378;DHT22;14078;50.974;6.786;2022-12-10T09:45:02;0.80;99.90
26378;DHT22;14078;50.974;6.786;2022-12-10T09:47:34;0.80;99.90
26378;DHT22;14078;50.974;6.786;2022-12-10T09:50:02;1.00;99.90
26378;DHT22;14078;50.974;6.786;2022-12-10T09:52:33;1.10;99.90
26378;DHT22;14078;50.974;6.786;2022-12-10T09:55:03;1.00;99.90
26378;DHT22;14078;50.974;6.786;2022-12-10T09:57:31;1.00;99.90
26378;DHT22;14078;50.974;6.786;2022-12-10T09:59:59;0.90;99.90
26378;DHT22;14078;50.974;6.786;2022-12-10T10:02:27;1.10;99.90
26378;DHT22;14078;50.974;6.786;2022-12-10T10:04:59;1.20;99.90
26378;DHT22;14078;50.974;6.786;2022-12-10T10:07:28;1.20;99.90
26378;DHT22;14078;50.974;6.786;2022-12-10T10:09:56;1.20;99.90
26378;DHT22;14078;50.974;6.786;2022-12-10T10:12:23;1.30;99.90
26378;DHT22;14078;50.974;6.786;2022-12-10T10:14:49;1.20;99.90
26378;DHT22;14078;50.974;6.786;2022-12-10T10:17:16;1.20;99.90
26378;DHT22;14078;50.974;6.786;2022-12-10T10:19:45;1.10;99.90
26378;DHT22;14078;50.974;6.786;2022-12-10T10:22:13;1.30;99.90
26378;DHT22;14078;50.974;6.786;2022-12-10T10:24:40;1.30;99.90
26378;DHT22;14078;50.974;6.786;2022-12-10T10:27:12;1.20;99.90
26378;DHT22;14078;50.974;6.786;2022-12-10T10:29:39;1.20;99.90
26378;DHT22;14078;50.974;6.786;2022-12-10T10:32:13;1.20;99.90
26378;DHT22;14078;50.974;6.786;2022-12-10T10:34:40;1.40;99.90
26378;DHT22;14078;50.974;6.786;2022-12-10T10:37:11;1.40;99.90
26378;DHT22;14078;50.974;6.786;2022-12-10T10:39:41;1.50;99.90
26378;DHT22;14078;50.974;6.786;2022-12-10T10:42:14;1.50;99.90
26378;DHT22;14078;50.974;6.786;2022-12-10T10:44:45;1.50;99.90
26378;DHT22;14078;50.974;6.786;2022-12-10T10:47:23;1.60;99.90
26378;DHT22;14078;50.974;6.786;2022-12-10T10:49:50;1.40;99.90
26378;DHT22;14078;50.974;6.786;2022-12-10T10:52:18;1.40;99.90
26378;DHT22;14078;50.974;6.786;2022-12-10T10:54:46;1.40;99.90
26378;DHT22;14078;50.974;6.786;2022-12-10T10:57:21;1.40;99.90
26378;DHT22;14078;50.974;6.786;2022-12-10T10:59:50;1.50;99.90
26378;DHT22;14078;50.974;6.786;2022-12-10T11:02:19;1.40;99.90
26378;DHT22;14078;50.974;6.786;2022-12-10T11:04:47;1.30;99.90
26378;DHT22;14078;50.974;6.786;2022-12-10T11:07:16;1.20;99.90
26378;DHT22;14078;50.974;6.786;2022-12-10T11:09:46;1.20;99.90
26378;DHT22;14078;50.974;6.786;2022-12-10T11:12:21;1.20;99.90
26378;DHT22;14078;50.974;6.786;2022-12-10T11:14:49;1.20;99.90
26378;DHT22;14078;50.974;6.786;2022-12-10T11:17:17;1.20;99.90
26378;DHT22;14078;50.974;6.786;2022-12-10T11:19:52;1.20;99.90
26378;DHT22;14078;50.974;6.786;2022-12-10T11:22:20;1.30;99.90
26378;DHT22;14078;50.974;6.786;2022-12-10T11:24:48;1.40;99.90
26378;DHT22;14078;50.974;6.786;2022-12-10T11:27:16;1.50;99.90
26378;DHT22;14078;50.974;6.786;2022-12-10T11:29:46;1.60;99.90
26378;DHT22;14078;50.974;6.786;2022-12-10T11:32:21;1.70;99.90
26378;DHT22;14078;50.974;6.786;2022-12-10T11:34:56;1.70;99.90
26378;DHT22;14078;50.974;6.786;2022-12-10T11:37:27;1.60;99.90
26378;DHT22;14078;50.974;6.786;2022-12-10T11:40:06;1.70;99.90
26378;DHT22;14078;50.974;6.786;2022-12-10T11:42:41;1.60;99.90
26378;DHT22;14078;50.974;6.786;2022-12-10T11:45:12;1.60;99.90
26378;DHT22;14078;50.974;6.786;2022-12-10T11:47:44;1.60;99.90
26378;DHT22;14078;50.974;6.786;2022-12-10T11:50:20;1.50;99.90
26378;DHT22;14078;50.974;6.786;2022-12-10T11:52:55;1.60;99.90
26378;DHT22;14078;50.974;6.786;2022-12-10T11:55:27;1.70;99.90
26378;DHT22;14078;50.974;6.786;2022-12-10T11:58:03;1.70;99.90
26378;DHT22;14078;50.974;6.786;2022-12-10T12:00:35;1.60;99.90
26378;DHT22;14078;50.974;6.786;2022-12-10T12:03:07;1.60;99.90
26378;DHT22;14078;50.974;6.786;2022-12-10T12:05:36;1.60;99.90
26378;DHT22;14078;50.974;6.786;2022-12-10T12:08:08;1.60;99.90
26378;DHT22;14078;50.974;6.786;2022-12-10T12:10:48;1.70;99.90
26378;DHT22;14078;50.974;6.786;2022-12-10T12:13:19;1.80;99.90
26378;DHT22;14078;50.974;6.786;2022-12-10T12:15:49;1.80;99.90
26378;DHT22;14078;50.974;6.786;2022-12-10T12:18:17;1.70;99.90
26378;DHT22;14078;50.974;6.786;2022-12-10T12:20:45;1.80;99.90
26378;DHT22;14078;50.974;6.786;2022-12-10T12:23:14;1.60;99.90
26378;DHT22;14078;50.974;6.786;2022-12-10T12:25:42;1.50;99.90
26378;DHT22;14078;50.974;6.786;2022-12-10T12:28:12;1.40;99.90
26378;DHT22;14078;50.974;6.786;2022-12-10T12:30:40;1.30;99.90
26378;DHT22;14078;50.974;6.786;2022-12-10T12:33:09;1.30;99.90
26378;DHT22;14078;50.974;6.786;2022-12-10T12:35:38;1.30;99.90
26378;DHT22;14078;50.974;6.786;2022-12-10T12:38:06;1.30;99.90
26378;DHT22;14078;50.974;6.786;2022-12-10T12:40:40;1.30;99.90
26378;DHT22;14078;50.974;6.786;2022-12-10T12:43:08;1.40;99.90
26378;DHT22;14078;50.974;6.786;2022-12-10T12:45:40;1.50;99.90
26378;DHT22;14078;50.974;6.786;2022-12-10T12:48:16;1.50;99.90
26378;DHT22;14078;50.974;6.786;2022-12-10T12:50:43;1.40;99.90
26378;DHT22;14078;50.974;6.786;2022-12-10T12:53:11;1.30;99.90
26378;DHT22;14078;50.974;6.786;2022-12-10T12:55:39;1.20;99.90
26378;DHT22;14078;50.974;6.786;2022-12-10T12:58:11;1.20;99.90
26378;DHT22;14078;50.974;6.786;2022-12-10T13:00:43;1.20;99.90
26378;DHT22;14078;50.974;6.786;2022-12-10T13:03:17;1.30;99.90
26378;DHT22;14078;50.974;6.786;2022-12-10T13:05:45;1.40;99.90
26378;DHT22;14078;50.974;6.786;2022-12-10T13:08:22;1.50;99.90
26378;DHT22;14078;50.974;6.786;2022-12-10T13:10:50;1.60;99.90
26378;DHT22;14078;50.974;6.786;2022-12-10T13:13:22;1.60;99.90
26378;DHT22;14078;50.974;6.786;2022-12-10T13:15:51;1.60;99.90
26378;DHT22;14078;50.974;6.786;2022-12-10T13:23:47;1.60;99.90
26378;DHT22;14078;50.974;6.786;2022-12-10T13:26:22;1.50;99.90
26378;DHT22;14078;50.974;6.786;2022-12-10T13:28:50;1.40;99.90
26378;DHT22;14078;50.974;6.786;2022-12-10T13:31:20;1.40;99.90
26378;DHT22;14078;50.974;6.786;2022-12-10T13:33:48;1.40;99.90
26378;DHT22;14078;50.974;6.786;2022-12-10T13:36:19;1.40;99.90
26378;DHT22;14078;50.974;6.786;2022-12-10T13:38:54;1.40;99.90
26378;DHT22;14078;50.974;6.786;2022-12-10T13:41:21;1.40;99.90
26378;DHT22;14078;50.974;6.786;2022-12-10T13:47:21;1.30;99.90
26378;DHT22;14078;50.974;6.786;2022-12-10T13:49:51;1.30;99.90
26378;DHT22;14078;50.974;6.786;2022-12-10T13:52:19;1.30;99.90
26378;DHT22;14078;50.974;6.786;2022-12-10T13:54:55;1.30;99.90
26378;DHT22;14078;50.974;6.786;2022-12-10T13:57:29;1.30;99.90
26378;DHT22;14078;50.974;6.786;2022-12-10T14:00:00;1.40;99.90
26378;DHT22;14078;50.974;6.786;2022-12-10T14:02:36;1.40;99.90
26378;DHT22;14078;50.974;6.786;2022-12-10T14:05:19;1.40;99.90
26378;DHT22;14078;50.974;6.786;2022-12-10T14:07:50;1.40;99.90
26378;DHT22;14078;50.974;6.786;2022-12-10T14:10:18;1.50;99.90
26378;DHT22;14078;50.974;6.786;2022-12-10T14:12:48;1.50;99.90
26378;DHT22;14078;50.974;6.786;2022-12-10T14:15:15;1.50;99.90
26378;DHT22;14078;50.974;6.786;2022-12-10T14:17:45;1.60;99.90
26378;DHT22;14078;50.974;6.786;2022-12-10T14:20:13;1.70;99.90
26378;DHT22;14078;50.974;6.786;2022-12-10T14:22:43;1.70;99.90
26378;DHT22;14078;50.974;6.786;2022-12-10T14:25:11;1.70;99.90
26378;DHT22;14078;50.974;6.786;2022-12-10T14:27:38;1.80;99.90
26378;DHT22;14078;50.974;6.786;2022-12-10T14:30:05;1.80;99.90
26378;DHT22;14078;50.974;6.786;2022-12-10T14:32:33;1.90;99.90
26378;DHT22;14078;50.974;6.786;2022-12-10T14:35:02;1.90;99.90
26378;DHT22;14078;50.974;6.786;2022-12-10T14:37:30;1.80;99.90
26378;DHT22;14078;50.974;6.786;2022-12-10T14:39:57;1.80;99.90
26378;DHT22;14078;50.974;6.786;2022-12-10T14:42:24;1.70;99.90
26378;DHT22;14078;50.974;6.786;2022-12-10T14:44:54;1.80;99.90
26378;DHT22;14078;50.974;6.786;2022-12-10T14:47:21;1.70;99.90
26378;DHT22;14078;50.974;6.786;2022-12-10T14:49:48;1.80;99.90
26378;DHT22;14078;50.974;6.786;2022-12-10T14:52:18;1.80;99.90
26378;DHT22;14078;50.974;6.786;2022-12-10T14:54:44;1.70;99.90
26378;DHT22;14078;50.974;6.786;2022-12-10T14:57:13;1.70;99.90
26378;DHT22;14078;50.974;6.786;2022-12-10T14:59:42;1.80;99.90
26378;DHT22;14078;50.974;6.786;2022-12-10T15:02:12;1.70;99.90
26378;DHT22;14078;50.974;6.786;2022-12-10T15:04:41;1.70;99.90
26378;DHT22;14078;50.974;6.786;2022-12-10T15:07:10;1.70;99.90
26378;DHT22;14078;50.974;6.786;2022-12-10T15:09:39;1.60;99.90
26378;DHT22;14078;50.974;6.786;2022-12-10T15:12:05;1.60;99.90
26378;DHT22;14078;50.974;6.786;2022-12-10T15:14:32;1.60;99.90
26378;DHT22;14078;50.974;6.786;2022-12-10T15:17:00;1.60;99.90
26378;DHT22;14078;50.974;6.786;2022-12-10T15:19:30;1.60;99.90
26378;DHT22;14078;50.974;6.786;2022-12-10T15:21:58;1.70;99.90
26378;DHT22;14078;50.974;6.786;2022-12-10T15:24:26;1.90;99.90
26378;DHT22;14078;50.974;6.786;2022-12-10T15:26:54;2.00;99.90
26378;DHT22;14078;50.974;6.786;2022-12-10T15:29:31;2.10;99.90
26378;DHT22;14078;50.974;6.786;2022-12-10T15:31:59;2.10;99.90
26378;DHT22;14078;50.974;6.786;2022-12-10T15:34:26;2.00;99.90
26378;DHT22;14078;50.974;6.786;2022-12-10T15:36:54;1.80;99.90
26378;DHT22;14078;50.974;6.786;2022-12-10T15:39:23;1.80;99.90
26378;DHT22;14078;50.974;6.786;2022-12-10T15:41:51;1.80;99.90
26378;DHT22;14078;50.974;6.786;2022-12-10T15:44:23;1.90;99.90
26378;DHT22;14078;50.974;6.786;2022-12-10T15:46:50;2.00;99.90
26378;DHT22;14078;50.974;6.786;2022-12-10T15:49:17;2.10;99.90
26378;DHT22;14078;50.974;6.786;2022-12-10T15:51:44;2.20;99.90
26378;DHT22;14078;50.974;6.786;2022-12-10T15:54:20;2.20;99.90
26378;DHT22;14078;50.974;6.786;2022-12-10T15:56:47;2.30;99.90
26378;DHT22;14078;50.974;6.786;2022-12-10T15:59:14;2.30;99.90
26378;DHT22;14078;50.974;6.786;2022-12-10T16:01:42;2.40;99.90
26378;DHT22;14078;50.974;6.786;2022-12-10T16:04:08;2.20;99.90
26378;DHT22;14078;50.974;6.786;2022-12-10T16:06:35;1.90;99.90
26378;DHT22;14078;50.974;6.786;2022-12-10T16:09:01;1.80;99.90
26378;DHT22;14078;50.974;6.786;2022-12-10T16:11:28;1.80;99.90
26378;DHT22;14078;50.974;6.786;2022-12-10T16:13:54;1.70;99.90
26378;DHT22;14078;50.974;6.786;2022-12-10T16:16:22;1.80;99.90
26378;DHT22;14078;50.974;6.786;2022-12-10T16:18:50;1.70;99.90
26378;DHT22;14078;50.974;6.786;2022-12-10T16:21:17;1.80;99.90
26378;DHT22;14078;50.974;6.786;2022-12-10T16:23:43;1.80;99.90
26378;DHT22;14078;50.974;6.786;2022-12-10T16:26:13;1.90;99.90
26378;DHT22;14078;50.974;6.786;2022-12-10T16:28:40;2.00;99.90
26378;DHT22;14078;50.974;6.786;2022-12-10T16:31:07;1.90;99.90
26378;DHT22;14078;50.974;6.786;2022-12-10T16:33:35;1.90;99.90
26378;DHT22;14078;50.974;6.786;2022-12-10T16:36:03;1.80;99.90
26378;DHT22;14078;50.974;6.786;2022-12-10T16:38:30;1.60;99.90
26378;DHT22;14078;50.974;6.786;2022-12-10T16:40:56;1.60;99.90
26378;DHT22;14078;50.974;6.786;2022-12-10T16:43:24;1.50;99.90
26378;DHT22;14078;50.974;6.786;2022-12-10T16:45:51;1.50;99.90
26378;DHT22;14078;50.974;6.786;2022-12-10T16:48:18;1.50;99.90
26378;DHT22;14078;50.974;6.786;2022-12-10T16:50:45;1.60;99.90
26378;DHT22;14078;50.974;6.786;2022-12-10T16:53:16;1.60;99.90
26378;DHT22;14078;50.974;6.786;2022-12-10T16:55:43;1.60;99.90
26378;DHT22;14078;50.974;6.786;2022-12-10T16:58:10;1.70;99.90
26378;DHT22;14078;50.974;6.786;2022-12-10T17:00:37;1.60;99.90
26378;DHT22;14078;50.974;6.786;2022-12-10T17:03:03;1.60;99.90
26378;DHT22;14078;50.974;6.786;2022-12-10T17:05:41;1.60;99.90
26378;DHT22;14078;50.974;6.786;2022-12-10T17:08:08;1.60;99.90
26378;DHT22;14078;50.974;6.786;2022-12-10T17:10:36;1.60;99.90
26378;DHT22;14078;50.974;6.786;2022-12-10T17:13:21;1.60;99.90
26378;DHT22;14078;50.974;6.786;2022-12-10T17:15:48;1.60;99.90
26378;DHT22;14078;50.974;6.786;2022-12-10T17:18:15;1.60;99.90
26378;DHT22;14078;50.974;6.786;2022-12-10T17:20:42;1.50;99.90
26378;DHT22;14078;50.974;6.786;2022-12-10T17:23:09;1.40;99.90
26378;DHT22;14078;50.974;6.786;2022-12-10T17:25:37;1.50;99.90
26378;DHT22;14078;50.974;6.786;2022-12-10T17:28:04;1.40;99.90
26378;DHT22;14078;50.974;6.786;2022-12-10T17:30:31;1.40;99.90
26378;DHT22;14078;50.974;6.786;2022-12-10T17:32:57;1.50;99.90
26378;DHT22;14078;50.974;6.786;2022-12-10T17:35:24;1.50;99.90
26378;DHT22;14078;50.974;6.786;2022-12-10T17:37:50;1.50;99.90
26378;DHT22;14078;50.974;6.786;2022-12-10T17:40:20;1.40;99.90
26378;DHT22;14078;50.974;6.786;2022-12-10T17:42:48;1.40;99.90
26378;DHT22;14078;50.974;6.786;2022-12-10T17:45:16;1.50;99.90
26378;DHT22;14078;50.974;6.786;2022-12-10T17:47:43;1.50;99.90
26378;DHT22;14078;50.974;6.786;2022-12-10T17:50:15;1.40;99.90
26378;DHT22;14078;50.974;6.786;2022-12-10T17:52:42;1.40;99.90
26378;DHT22;14078;50.974;6.786;2022-12-10T17:55:09;1.40;99.90
26378;DHT22;14078;50.974;6.786;2022-12-10T17:57:35;1.40;99.90
26378;DHT22;14078;50.974;6.786;2022-12-10T18:00:05;1.40;99.90
26378;DHT22;14078;50.974;6.786;2022-12-10T18:02:35;1.40;99.90
26378;DHT22;14078;50.974;6.786;2022-12-10T18:05:01;1.50;99.90
26378;DHT22;14078;50.974;6.786;2022-12-10T18:07:28;1.50;99.90
26378;DHT22;14078;50.974;6.786;2022-12-10T18:09:54;1.40;99.90
26378;DHT22;14078;50.974;6.786;2022-12-10T18:12:22;1.40;99.90
26378;DHT22;14078;50.974;6.786;2022-12-10T18:14:48;1.40;99.90
26378;DHT22;14078;50.974;6.786;2022-12-10T18:17:16;1.30;99.90
26378;DHT22;14078;50.974;6.786;2022-12-10T18:19:43;1.40;99.90
26378;DHT22;14078;50.974;6.786;2022-12-10T18:22:09;1.30;99.90
26378;DHT22;14078;50.974;6.786;2022-12-10T18:24:36;1.30;99.90
26378;DHT22;14078;50.974;6.786;2022-12-10T18:27:03;1.30;99.90
26378;DHT22;14078;50.974;6.786;2022-12-10T18:29:29;1.20;99.90
26378;DHT22;14078;50.974;6.786;2022-12-10T18:31:56;1.30;99.90
26378;DHT22;14078;50.974;6.786;2022-12-10T18:34:24;1.20;99.90
26378;DHT22;14078;50.974;6.786;2022-12-10T18:36:50;1.20;99.90
26378;DHT22;14078;50.974;6.786;2022-12-10T18:39:18;1.20;99.90
26378;DHT22;14078;50.974;6.786;2022-12-10T18:41:45;1.20;99.90
26378;DHT22;14078;50.974;6.786;2022-12-10T18:44:11;1.30;99.90
26378;DHT22;14078;50.974;6.786;2022-12-10T18:46:38;1.30;99.90
26378;DHT22;14078;50.974;6.786;2022-12-10T18:49:05;1.40;99.90
26378;DHT22;14078;50.974;6.786;2022-12-10T18:51:33;1.50;99.90
26378;DHT22;14078;50.974;6.786;2022-12-10T18:54:00;1.50;99.90
26378;DHT22;14078;50.974;6.786;2022-12-10T18:56:26;1.40;99.90
26378;DHT22;14078;50.974;6.786;2022-12-10T18:58:54;1.30;99.90
26378;DHT22;14078;50.974;6.786;2022-12-10T19:01:21;1.30;99.90
26378;DHT22;14078;50.974;6.786;2022-12-10T19:03:48;1.40;99.90
26378;DHT22;14078;50.974;6.786;2022-12-10T19:06:15;1.40;99.90
26378;DHT22;14078;50.974;6.786;2022-12-10T19:08:43;1.50;99.90
26378;DHT22;14078;50.974;6.786;2022-12-10T19:11:11;1.30;99.90
26378;DHT22;14078;50.974;6.786;2022-12-10T19:13:38;1.30;99.90
26378;DHT22;14078;50.974;6.786;2022-12-10T19:16:05;1.30;99.90
26378;DHT22;14078;50.974;6.786;2022-12-10T19:18:31;1.30;99.90
26378;DHT22;14078;50.974;6.786;2022-12-10T19:20:58;1.40;99.90
26378;DHT22;14078;50.974;6.786;2022-12-10T19:23:25;1.40;99.90
26378;DHT22;14078;50.974;6.786;2022-12-10T19:25:53;1.30;99.90
26378;DHT22;14078;50.974;6.786;2022-12-10T19:28:19;1.30;99.90
26378;DHT22;14078;50.974;6.786;2022-12-10T19:30:46;1.30;99.90
26378;DHT22;14078;50.974;6.786;2022-12-10T19:33:13;1.40;99.90
26378;DHT22;14078;50.974;6.786;2022-12-10T19:35:40;1.40;99.90
26378;DHT22;14078;50.974;6.786;2022-12-10T19:38:08;1.50;99.90
26378;DHT22;14078;50.974;6.786;2022-12-10T19:40:35;1.50;99.90
26378;DHT22;14078;50.974;6.786;2022-12-10T19:43:03;1.50;99.90
26378;DHT22;14078;50.974;6.786;2022-12-10T19:45:30;1.50;99.90
26378;DHT22;14078;50.974;6.786;2022-12-10T19:47:57;1.60;99.90
26378;DHT22;14078;50.974;6.786;2022-12-10T19:50:24;1.70;99.90
26378;DHT22;14078;50.974;6.786;2022-12-10T19:52:51;1.70;99.90
26378;DHT22;14078;50.974;6.786;2022-12-10T19:55:18;1.60;99.90
26378;DHT22;14078;50.974;6.786;2022-12-10T19:57:45;1.60;99.90
26378;DHT22;14078;50.974;6.786;2022-12-10T20:00:14;1.60;99.90
26378;DHT22;14078;50.974;6.786;2022-12-10T20:02:41;1.60;99.90
26378;DHT22;14078;50.974;6.786;2022-12-10T20:05:08;1.70;99.90
26378;DHT22;14078;50.974;6.786;2022-12-10T20:07:35;1.60;99.90
26378;DHT22;14078;50.974;6.786;2022-12-10T20:10:02;1.50;99.90
26378;DHT22;14078;50.974;6.786;2022-12-10T20:12:28;1.50;99.90
26378;DHT22;14078;50.974;6.786;2022-12-10T20:14:55;1.40;99.90
26378;DHT22;14078;50.974;6.786;2022-12-10T20:17:23;1.40;99.90
26378;DHT22;14078;50.974;6.786;2022-12-10T20:19:50;1.40;99.90
26378;DHT22;14078;50.974;6.786;2022-12-10T20:22:16;1.30;99.90
26378;DHT22;14078;50.974;6.786;2022-12-10T20:24:43;1.30;99.90
26378;DHT22;14078;50.974;6.786;2022-12-10T20:27:10;1.30;99.90
26378;DHT22;14078;50.974;6.786;2022-12-10T20:29:37;1.30;99.90
26378;DHT22;14078;50.974;6.786;2022-12-10T20:32:04;1.30;99.90
26378;DHT22;14078;50.974;6.786;2022-12-10T20:34:32;1.20;99.90
26378;DHT22;14078;50.974;6.786;2022-12-10T20:36:59;1.20;99.90
26378;DHT22;14078;50.974;6.786;2022-12-10T20:39:26;1.40;99.90
26378;DHT22;14078;50.974;6.786;2022-12-10T20:41:53;1.50;99.90
26378;DHT22;14078;50.974;6.786;2022-12-10T20:44:20;1.60;99.90
26378;DHT22;14078;50.974;6.786;2022-12-10T20:46:47;1.70;99.90
26378;DHT22;14078;50.974;6.786;2022-12-10T20:49:14;1.80;99.90
26378;DHT22;14078;50.974;6.786;2022-12-10T20:51:42;1.80;99.90
26378;DHT22;14078;50.974;6.786;2022-12-10T20:54:09;1.80;99.90
26378;DHT22;14078;50.974;6.786;2022-12-10T20:56:35;1.70;99.90
26378;DHT22;14078;50.974;6.786;2022-12-10T20:59:02;1.80;99.90
26378;DHT22;14078;50.974;6.786;2022-12-10T21:01:29;1.80;99.90
26378;DHT22;14078;50.974;6.786;2022-12-10T21:03:56;1.70;99.90
26378;DHT22;14078;50.974;6.786;2022-12-10T21:06:25;1.70;99.90
26378;DHT22;14078;50.974;6.786;2022-12-10T21:08:53;1.80;99.90
26378;DHT22;14078;50.974;6.786;2022-12-10T21:11:20;1.80;99.90
26378;DHT22;14078;50.974;6.786;2022-12-10T21:13:46;1.80;99.90
26378;DHT22;14078;50.974;6.786;2022-12-10T21:16:14;1.70;99.90
26378;DHT22;14078;50.974;6.786;2022-12-10T21:18:40;1.60;99.90
26378;DHT22;14078;50.974;6.786;2022-12-10T21:21:07;1.70;99.90
26378;DHT22;14078;50.974;6.786;2022-12-10T21:23:34;1.60;99.90
26378;DHT22;14078;50.974;6.786;2022-12-10T21:26:02;1.50;99.90
26378;DHT22;14078;50.974;6.786;2022-12-10T21:28:28;1.50;99.90
26378;DHT22;14078;50.974;6.786;2022-12-10T21:30:55;1.40;99.90
26378;DHT22;14078;50.974;6.786;2022-12-10T21:33:22;1.40;99.90
26378;DHT22;14078;50.974;6.786;2022-12-10T21:35:49;1.50;99.90
26378;DHT22;14078;50.974;6.786;2022-12-10T21:38:17;1.60;99.90
26378;DHT22;14078;50.974;6.786;2022-12-10T21:40:44;1.60;99.90
26378;DHT22;14078;50.974;6.786;2022-12-10T21:43:13;1.60;99.90
26378;DHT22;14078;50.974;6.786;2022-12-10T21:45:42;1.60;99.90
26378;DHT22;14078;50.974;6.786;2022-12-10T21:48:09;1.70;99.90
26378;DHT22;14078;50.974;6.786;2022-12-10T21:50:36;1.70;99.90
26378;DHT22;14078;50.974;6.786;2022-12-10T21:53:02;1.60;99.90
26378;DHT22;14078;50.974;6.786;2022-12-10T21:55:29;1.60;99.90
26378;DHT22;14078;50.974;6.786;2022-12-10T21:57:56;1.60;99.90
26378;DHT22;14078;50.974;6.786;2022-12-10T22:00:24;1.50;99.90
26378;DHT22;14078;50.974;6.786;2022-12-10T22:02:50;1.60;99.90